Corona, Arizona
Current Conditions -  °F | °C
As of 5:53 PM on Friday 19 Dec 2014 (Local Time) from KTUS Reporting Station
Clear Clear  
Wind Chill: 56°   Ceiling: Unl
Heat Index: 56°   Visibility: 10mi
Dew Point: 38°   Wind: 8mph
Humidity: 51%   Direction: 350°N
Pressure: 30.14"   Gusts: NA
Location:  31.9353°N, 110.697°W
Report Text: KTUS 200053Z 35007KT 10SM CLR 13/03 A3014 RMK AO2 SLP194 T01330033
Loading
Personal Weather Stations






























Interactive Weather Map New forecast layout! Learn more

10-Day Weather Forecast

Advertisements
Track Severe Weather on mobile